This is the latest recevied weather packets stored in our database for station/object KO4YAW. If no packets are shown the sender has not sent any weather packets the latest 10 day(s).
| Time | Temp. | Humidity | Pressure | Rain* | Wind** | Luminosity | Snow |
|---|---|---|---|---|---|---|---|
| 1777728632 | 6.67° C | 47% | 1022.7 hPa | 0 mm | - | 113 W/m² | - |
| 1777727732 | 5.56° C | 49% | 1022.7 hPa | 0 mm | - | 167 W/m² | - |
| 1777726832 | 4.44° C | 51% | 1022.5 hPa | 0 mm | - | 79 W/m² | - |
| 1777725932 | 4.44° C | 53% | 1022.4 hPa | 0 mm | - | 37 W/m² | - |
| 1777725032 | 3.33° C | 56% | 1022.3 hPa | 0 mm | - | 31 W/m² | - |
| 1777724132 | 3.33° C | 57% | 1022.2 hPa | 0 mm | - | 15 W/m² | - |
| 1777723232 | 3.33° C | 58% | 1022.1 hPa | 0 mm | - | 5 W/m² | - |
| 1777722332 | 3.33° C | 57% | 1021.9 hPa | 0 mm | - | 1 W/m² | - |
| 1777721432 | 3.33° C | 57% | 1021.9 hPa | 0 mm | - | 0 W/m² | - |
| 1777720532 | 3.33° C | 56% | 1021.9 hPa | 0 mm | - | 0 W/m² | - |
| 1777719632 | 3.89° C | 55% | 1021.9 hPa | 0 mm | - | 0 W/m² | - |
| 1777718732 | 3.89° C | 55% | 1021.9 hPa | 0 mm | - | 0 W/m² | - |
| 1777717832 | 3.89° C | 55% | 1021.9 hPa | 0 mm | - | 0 W/m² | - |
| 1777716932 | 3.89° C | 55% | 1021.8 hPa | 0 mm | - | 0 W/m² | - |
| 1777716032 | 3.89° C | 55% | 1021.8 hPa | 0 mm | - | 0 W/m² | - |
| 1777715132 | 3.89° C | 55% | 1021.7 hPa | 0 mm | - | 0 W/m² | - |
| 1777714232 | 4.44° C | 56% | 1021.7 hPa | 0 mm | - | 0 W/m² | - |
| 1777713332 | 4.44° C | 56% | 1021.7 hPa | 0 mm | - | 0 W/m² | - |
| 1777712432 | 4.44° C | 55% | 1021.7 hPa | 0 mm | - | 0 W/m² | - |
| 1777711532 | 4.44° C | 54% | 1021.7 hPa | 0 mm | - | 0 W/m² | - |
| 1777710632 | 5° C | 54% | 1021.7 hPa | 0 mm | - | 0 W/m² | - |
| 1777709732 | 5.56° C | 53% | 1021.8 hPa | 0 mm | - | 0 W/m² | - |
| 1777708832 | 5.56° C | 51% | 1021.8 hPa | 0 mm | - | 0 W/m² | - |
| 1777707932 | 6.11° C | 49% | 1021.9 hPa | 0 mm | - | 0 W/m² | - |
| 1777707032 | 6.67° C | 45% | 1021.9 hPa | 0 mm | - | 0 W/m² | - |
* Rain since midnight (hover to see other rain measurements)
** Current wind speed in m/s (hover to see current wind gust speed)